This is the latest recevied weather packets stored in our database for station/object SQ3RAX-13. If no packets are shown the sender has not sent any weather packets the latest 10 day(s).
| Time | Temp. | Humidity | Pressure | Rain* | Wind** | Luminosity | Snow |
|---|---|---|---|---|---|---|---|
| 1777750567 | 15.56° C | 51% | 1019 hPa | 0 mm | - | - | - |
| 1777749967 | 17.22° C | 43% | 1019 hPa | 0 mm | - | - | - |
| 1777749367 | 18.33° C | 40% | 1019 hPa | 0 mm | - | - | - |
| 1777748767 | 18.33° C | 46% | 1019 hPa | 0 mm | - | - | - |
| 1777748167 | 18.33° C | 44% | 1019 hPa | 0 mm | - | - | - |
| 1777746967 | 20.56° C | 33% | 1018 hPa | 0 mm | - | - | - |
| 1777746368 | 20.56° C | 33% | 1018 hPa | 0 mm | - | - | - |
| 1777745768 | 21.11° C | 38% | 1018 hPa | 0 mm | - | - | - |
| 1777745168 | 21.67° C | 48% | 1019 hPa | 0 mm | - | - | - |
| 1777743968 | 21.67° C | 47% | 1019 hPa | 0 mm | - | - | - |
| 1777743368 | 21.67° C | 47% | 1019 hPa | 0 mm | - | - | - |
| 1777742768 | 23.33° C | 34% | 1019 hPa | 0 mm | - | - | - |
| 1777742168 | 23.33° C | 33% | 1019 hPa | 0 mm | - | - | - |
| 1777740968 | 23.33° C | 44% | 1019 hPa | 0 mm | - | - | - |
| 1777740368 | 23.33° C | 44% | 1019 hPa | 0 mm | - | - | - |
| 1777739768 | 23.33° C | 44% | 1019 hPa | 0 mm | - | - | - |
| 1777739168 | 24.44° C | 26% | 1019 hPa | 0 mm | - | - | - |
| 1777738568 | 24.44° C | 26% | 1019 hPa | 0 mm | - | - | - |
| 1777737968 | 24.44° C | 36% | 1019 hPa | 0 mm | - | - | - |
| 1777737368 | 24.44° C | 36% | 1019 hPa | 0 mm | - | - | - |
| 1777736768 | 24.44° C | 36% | 1019 hPa | 0 mm | - | - | - |
| 1777736168 | 24.44° C | 36% | 1019 hPa | 0 mm | - | - | - |
| 1777735568 | 25° C | 26% | 1020 hPa | 0 mm | - | - | - |
| 1777734968 | 25° C | 26% | 1020 hPa | 0 mm | - | - | - |
| 1777734368 | 25° C | 34% | 1020 hPa | 0 mm | - | - | - |
* Rain latest hour (hover to see other rain measurements)
** Current wind speed in m/s (hover to see current wind gust speed)